Canning, South Dakota
Current Conditions -  °F | °C
As of 6:53 PM on Saturday 22 Nov 2014 (Local Time) from KPIR Reporting Station
Few Clouds Few Clouds  
Wind Chill: 36°   Ceiling: Unl
Heat Index: 40°   Visibility: 10mi
Dew Point: 31°   Wind: 6mph
Humidity: 70%   Direction: 240°WSW
Pressure: 29.41"   Gusts: NA
Location:  44.3693°N, 100.04°W
Report Text: KPIR 230053Z AUTO 24005KT 10SM FEW120 04/M01 A2941 RMK AO2 SLP974 T00441006
Loading
Personal Weather Stations






























Interactive Weather Map New forecast layout! Learn more

10-Day Weather Forecast

Advertisements
Track Severe Weather on mobile